createdAt,value
2018-12-12T18:50:41.422Z,1019.37
2018-12-12T18:51:42.785Z,1019.34
2018-12-12T18:52:44.163Z,1019.39
2018-12-12T18:53:45.539Z,1019.40
2018-12-12T18:54:46.914Z,1019.35
2018-12-12T18:55:48.304Z,1019.35
2018-12-12T18:56:49.691Z,1019.36
2018-12-12T18:57:51.081Z,1019.33
2018-12-12T18:58:52.455Z,1019.33
2018-12-12T18:59:53.830Z,1019.37
2018-12-12T19:00:55.222Z,1019.33
2018-12-12T19:01:56.598Z,1019.33
2018-12-12T19:02:57.970Z,1019.34
2018-12-12T19:03:59.352Z,1019.30
2018-12-12T19:05:00.730Z,1019.29
2018-12-12T19:06:02.105Z,1019.33
2018-12-12T19:07:03.595Z,1019.33
2018-12-12T19:08:04.969Z,1019.32
2018-12-12T19:09:06.604Z,1019.33
2018-12-12T19:10:07.994Z,1019.37
2018-12-12T19:11:09.376Z,1019.38
2018-12-12T19:12:10.909Z,1019.35
2018-12-12T19:13:12.281Z,1019.36
2018-12-12T19:14:13.672Z,1019.35
2018-12-12T19:15:15.049Z,1019.36
2018-12-12T19:16:16.433Z,1019.35
2018-12-12T19:17:17.813Z,1019.37
2018-12-12T19:18:19.195Z,1019.37
2018-12-12T19:19:21.167Z,1019.38
2018-12-12T19:20:22.556Z,1019.38
2018-12-12T19:21:23.936Z,1019.34
2018-12-12T19:22:25.570Z,1019.37
2018-12-12T19:23:27.210Z,1019.43
2018-12-12T19:24:28.612Z,1019.43
2018-12-12T19:25:30.106Z,1019.44
2018-12-12T19:26:31.500Z,1019.45
2018-12-12T19:27:32.887Z,1019.46
2018-12-12T19:28:34.267Z,1019.46
2018-12-12T19:29:35.647Z,1019.48
2018-12-12T19:30:37.027Z,1019.46
2018-12-12T19:31:38.408Z,1019.48
2018-12-12T19:32:39.793Z,1019.51
2018-12-12T19:33:41.170Z,1019.43
2018-12-12T19:34:42.576Z,1019.42
2018-12-12T19:35:43.974Z,1019.45
2018-12-12T19:36:45.361Z,1019.46
2018-12-12T19:37:46.750Z,1019.43
2018-12-12T19:38:48.148Z,1019.43
2018-12-12T19:39:49.543Z,1019.43
2018-12-12T19:40:50.937Z,1019.45
2018-12-12T19:41:52.453Z,1019.45
2018-12-12T19:42:53.853Z,1019.46
2018-12-12T19:43:55.252Z,1019.50
2018-12-12T19:44:56.888Z,1019.51
2018-12-12T19:45:58.263Z,1019.54
2018-12-12T19:46:59.649Z,1019.49
2018-12-12T19:48:01.063Z,1019.53
2018-12-12T19:49:02.504Z,1019.54
2018-12-12T19:50:03.838Z,1019.49
2018-12-12T19:51:05.395Z,1019.54
2018-12-12T19:52:06.774Z,1019.57
2018-12-12T19:53:08.164Z,1019.58
2018-12-12T19:54:09.545Z,1019.54
2018-12-12T19:55:10.940Z,1019.53
2018-12-12T19:56:12.376Z,1019.55
2018-12-12T19:57:13.782Z,1019.56
2018-12-12T19:58:15.178Z,1019.58
2018-12-12T19:59:16.696Z,1019.52
2018-12-12T20:00:18.065Z,1019.53
2018-12-12T20:01:19.496Z,1019.53
2018-12-12T20:02:20.939Z,1019.54
2018-12-12T20:03:22.330Z,1019.53
2018-12-12T20:04:23.747Z,1019.54
2018-12-12T20:05:25.269Z,1019.53
2018-12-12T20:06:26.669Z,1019.55
2018-12-12T20:07:28.089Z,1019.57
2018-12-12T20:08:29.477Z,1019.61
2018-12-12T20:09:30.866Z,1019.58
2018-12-12T20:10:32.353Z,1019.61
2018-12-12T20:11:33.743Z,1019.56
2018-12-12T20:12:35.139Z,1019.62
2018-12-12T20:13:36.524Z,1019.59
2018-12-12T20:14:37.948Z,1019.55
2018-12-12T20:15:39.328Z,1019.58
2018-12-12T20:16:40.848Z,1019.56
2018-12-12T20:17:43.132Z,1019.59
2018-12-12T20:18:44.552Z,1019.60
2018-12-12T20:19:45.984Z,1019.56
2018-12-12T20:20:47.395Z,1019.57
2018-12-12T20:21:48.791Z,1019.57
2018-12-12T20:22:50.178Z,1019.57
2018-12-12T20:23:51.581Z,1019.59
2018-12-12T20:24:52.971Z,1019.61
2018-12-12T20:25:54.369Z,1019.61
2018-12-12T20:26:55.759Z,1019.54
2018-12-12T20:27:57.145Z,1019.56
2018-12-12T20:28:58.526Z,1019.59
2018-12-12T20:29:59.902Z,1019.60
2018-12-12T20:31:01.288Z,1019.57
2018-12-12T20:32:02.682Z,1019.59
2018-12-12T20:33:04.094Z,1019.59
2018-12-12T20:34:05.475Z,1019.57
2018-12-12T20:35:06.933Z,1019.57
2018-12-12T20:36:08.315Z,1019.58
2018-12-12T20:37:09.708Z,1019.59
2018-12-12T20:38:11.992Z,1019.60
2018-12-12T20:39:13.404Z,1019.57
2018-12-12T20:40:14.843Z,1019.57
2018-12-12T20:41:16.239Z,1019.55
2018-12-12T20:42:17.618Z,1019.61
2018-12-12T20:43:19.010Z,1019.62
2018-12-12T20:44:20.434Z,1019.65
2018-12-12T20:45:21.852Z,1019.60
2018-12-12T20:46:23.242Z,1019.61
2018-12-12T20:47:24.637Z,1019.63
2018-12-12T20:48:26.038Z,1019.64
2018-12-12T20:49:27.443Z,1019.65
2018-12-12T20:50:28.836Z,1019.62
2018-12-12T20:51:30.217Z,1019.65
2018-12-12T20:52:31.611Z,1019.65
2018-12-12T20:53:33.010Z,1019.64
2018-12-12T20:54:34.409Z,1019.65
2018-12-12T20:55:37.813Z,1019.64
2018-12-12T20:56:39.132Z,1019.69
2018-12-12T20:57:40.524Z,1019.64
2018-12-12T20:58:42.108Z,1019.68
2018-12-12T20:59:45.828Z,1019.72
2018-12-12T21:00:44.846Z,1019.72
2018-12-12T21:01:46.237Z,1019.71
2018-12-12T21:02:47.624Z,1019.67
2018-12-12T21:03:49.175Z,1019.71
2018-12-12T21:04:50.545Z,1019.70
2018-12-12T21:05:54.585Z,1019.72
2018-12-12T21:06:53.487Z,1019.71
2018-12-12T21:07:54.865Z,1019.71
2018-12-12T21:08:56.259Z,1019.74
2018-12-12T21:09:57.637Z,1019.73
2018-12-12T21:10:59.033Z,1019.69
2018-12-12T21:12:00.421Z,1019.67
2018-12-12T21:13:01.801Z,1019.66
2018-12-12T21:14:03.191Z,1019.68
2018-12-12T21:15:04.630Z,1019.69
2018-12-12T21:16:06.035Z,1019.68
2018-12-12T21:17:07.417Z,1019.66
2018-12-12T21:18:08.819Z,1019.67
2018-12-12T21:19:10.205Z,1019.70
2018-12-12T21:20:11.597Z,1019.65
2018-12-12T21:21:12.998Z,1019.64
2018-12-12T21:22:14.371Z,1019.62
2018-12-12T21:23:15.760Z,1019.64
2018-12-12T21:24:17.237Z,1019.61
2018-12-12T21:25:18.611Z,1019.61
2018-12-12T21:26:19.993Z,1019.59
2018-12-12T21:27:21.374Z,1019.58
2018-12-12T21:28:22.763Z,1019.68
2018-12-12T21:29:24.200Z,1019.61
2018-12-12T21:30:25.587Z,1019.56
2018-12-12T21:31:26.958Z,1019.58
2018-12-12T21:32:28.477Z,1019.60
2018-12-12T21:33:29.867Z,1019.52
2018-12-12T21:34:31.257Z,1019.53
2018-12-12T21:35:32.713Z,1019.54
2018-12-12T21:36:34.097Z,1019.52
2018-12-12T21:37:35.479Z,1019.51
2018-12-12T21:38:36.899Z,1019.47
2018-12-12T21:39:38.286Z,1019.49
2018-12-12T21:40:39.667Z,1019.47
2018-12-12T21:41:41.057Z,1019.49
2018-12-12T21:42:42.427Z,1019.50
2018-12-12T21:43:43.834Z,1019.49
2018-12-12T21:44:45.207Z,1019.49
2018-12-12T21:45:46.624Z,1019.48
2018-12-12T21:46:48.003Z,1019.45
2018-12-12T21:47:49.384Z,1019.46
2018-12-12T21:48:50.778Z,1019.44
2018-12-12T21:49:52.174Z,1019.45
2018-12-12T21:50:53.559Z,1019.44
2018-12-12T21:51:54.934Z,1019.46
2018-12-12T21:52:56.319Z,1019.42
2018-12-12T21:53:57.702Z,1019.47
2018-12-12T21:54:59.078Z,1019.43
2018-12-12T21:56:00.454Z,1019.52
2018-12-12T21:57:01.842Z,1019.46
2018-12-12T21:58:03.216Z,1019.47
2018-12-12T21:59:04.597Z,1019.47
2018-12-12T22:00:05.986Z,1019.54
2018-12-12T22:01:07.367Z,1019.52
2018-12-12T22:02:08.744Z,1019.49
2018-12-12T22:03:10.127Z,1019.51
2018-12-12T22:04:11.517Z,1019.50
2018-12-12T22:05:12.892Z,1019.47
2018-12-12T22:06:14.400Z,1019.49
2018-12-12T22:07:15.771Z,1019.53
2018-12-12T22:08:17.157Z,1019.51
2018-12-12T22:09:18.546Z,1019.52
2018-12-12T22:10:19.917Z,1019.49
2018-12-12T22:11:21.301Z,1019.50
2018-12-12T22:12:22.679Z,1019.53
2018-12-12T22:13:24.055Z,1019.49
2018-12-12T22:14:25.446Z,1019.47
2018-12-12T22:15:26.835Z,1019.47
2018-12-12T22:16:28.220Z,1019.49
2018-12-12T22:17:29.597Z,1019.45
2018-12-12T22:18:30.977Z,1019.48
2018-12-12T22:19:32.361Z,1019.46
2018-12-12T22:20:33.750Z,1019.45
2018-12-12T22:21:35.124Z,1019.45
2018-12-12T22:22:36.506Z,1019.42
2018-12-12T22:23:37.885Z,1019.46
2018-12-12T22:24:39.276Z,1019.46
2018-12-12T22:25:40.666Z,1019.47
2018-12-12T22:26:42.053Z,1019.44
2018-12-12T22:27:43.439Z,1019.45
2018-12-12T22:28:44.830Z,1019.46
2018-12-12T22:29:46.210Z,1019.48
2018-12-12T22:30:47.604Z,1019.46
2018-12-12T22:31:48.982Z,1019.49
2018-12-12T22:32:50.365Z,1019.48
2018-12-12T22:33:51.746Z,1019.47
2018-12-12T22:34:53.131Z,1019.50
2018-12-12T22:35:54.514Z,1019.48
2018-12-12T22:37:01.679Z,1019.51
2018-12-12T22:38:03.210Z,1019.49
2018-12-12T22:39:04.619Z,1019.50
2018-12-12T22:40:05.984Z,1019.49
2018-12-12T22:41:07.361Z,1019.49
2018-12-12T22:42:08.865Z,1019.51
2018-12-12T22:43:10.235Z,1019.49
2018-12-12T22:44:11.615Z,1019.51
2018-12-12T22:45:13.147Z,1019.51
2018-12-12T22:46:14.540Z,1019.53
2018-12-12T22:47:15.923Z,1019.49
2018-12-12T22:48:20.519Z,1019.49
2018-12-12T22:49:18.695Z,1019.49
2018-12-12T22:50:20.087Z,1019.49
2018-12-12T22:51:21.474Z,1019.46
2018-12-12T22:52:22.852Z,1019.47
2018-12-12T22:53:25.191Z,1019.48
2018-12-12T22:54:26.572Z,1019.50
2018-12-12T22:55:27.958Z,1019.47
2018-12-12T22:56:29.352Z,1019.47
2018-12-12T22:57:30.725Z,1019.42
2018-12-12T22:58:32.316Z,1019.40
2018-12-12T22:59:33.701Z,1019.39
2018-12-12T23:00:35.076Z,1019.42
2018-12-12T23:01:36.549Z,1019.42
2018-12-12T23:02:37.852Z,1019.43
2018-12-12T23:03:39.246Z,1019.42
2018-12-12T23:04:40.746Z,1019.43
2018-12-12T23:05:42.138Z,1019.45
2018-12-12T23:06:43.519Z,1019.46
2018-12-12T23:07:44.930Z,1019.45
2018-12-12T23:08:46.320Z,1019.45
2018-12-12T23:09:47.697Z,1019.47
2018-12-12T23:10:49.082Z,1019.48
2018-12-12T23:11:50.609Z,1019.46
2018-12-12T23:12:51.991Z,1019.52
2018-12-12T23:13:53.610Z,1019.51
2018-12-12T23:14:54.988Z,1019.48
2018-12-12T23:15:56.373Z,1019.47
2018-12-12T23:16:57.746Z,1019.47
2018-12-12T23:17:59.129Z,1019.49
2018-12-12T23:19:00.467Z,1019.49
2018-12-12T23:20:01.843Z,1019.50
2018-12-12T23:21:03.575Z,1019.48
2018-12-12T23:22:04.962Z,1019.52
2018-12-12T23:23:06.346Z,1019.50
2018-12-12T23:24:07.731Z,1019.49
2018-12-12T23:25:09.114Z,1019.47
2018-12-12T23:26:10.625Z,1019.48
2018-12-12T23:27:12.008Z,1019.51
2018-12-12T23:28:13.393Z,1019.48
2018-12-12T23:29:14.875Z,1019.46
2018-12-12T23:30:16.261Z,1019.47
2018-12-12T23:31:17.643Z,1019.46
2018-12-12T23:32:19.021Z,1019.46
2018-12-12T23:33:20.413Z,1019.47
2018-12-12T23:34:22.106Z,1019.51
2018-12-12T23:35:23.527Z,1019.47
2018-12-12T23:36:27.050Z,1019.49
2018-12-12T23:37:26.504Z,1019.46
2018-12-12T23:38:27.780Z,1019.48
2018-12-12T23:39:29.157Z,1019.49
2018-12-12T23:40:30.757Z,1019.45
2018-12-12T23:41:32.141Z,1019.45
2018-12-12T23:42:33.523Z,1019.39
2018-12-12T23:43:34.947Z,1019.35
2018-12-12T23:44:36.330Z,1019.39
2018-12-12T23:45:37.744Z,1019.36
2018-12-12T23:46:39.119Z,1019.34
2018-12-12T23:47:40.506Z,1019.30
2018-12-12T23:48:41.895Z,1019.36
2018-12-12T23:49:43.271Z,1019.32
2018-12-12T23:50:44.654Z,1019.33
2018-12-12T23:51:46.032Z,1019.30
